sensor_id;sensor_type;location;lat;lon;timestamp;pressure;altitude;pressure_sealevel;temperature;humidity
21956;BME280;11142;49.930;8.606;2023-12-20T00:00:48;99853.16;;;6.16;100.00
21956;BME280;11142;49.930;8.606;2023-12-20T00:03:17;99859.53;;;6.26;100.00
21956;BME280;11142;49.930;8.606;2023-12-20T00:05:45;99856.22;;;6.24;100.00
21956;BME280;11142;49.930;8.606;2023-12-20T00:08:13;99858.16;;;6.19;100.00
21956;BME280;11142;49.930;8.606;2023-12-20T00:10:43;99850.31;;;6.05;100.00
21956;BME280;11142;49.930;8.606;2023-12-20T00:13:15;99843.09;;;6.29;100.00
21956;BME280;11142;49.930;8.606;2023-12-20T00:15:44;99854.09;;;6.32;100.00
21956;BME280;11142;49.930;8.606;2023-12-20T00:18:12;99862.19;;;6.25;100.00
21956;BME280;11142;49.930;8.606;2023-12-20T00:20:41;99852.78;;;6.07;100.00
21956;BME280;11142;49.930;8.606;2023-12-20T00:23:09;99839.91;;;6.07;100.00
21956;BME280;11142;49.930;8.606;2023-12-20T00:25:37;99845.44;;;5.99;100.00
21956;BME280;11142;49.930;8.606;2023-12-20T00:28:06;99842.41;;;6.08;100.00
21956;BME280;11142;49.930;8.606;2023-12-20T00:30:35;99837.56;;;6.02;100.00
21956;BME280;11142;49.930;8.606;2023-12-20T00:33:07;99835.66;;;6.06;100.00
21956;BME280;11142;49.930;8.606;2023-12-20T00:35:37;99834.16;;;6.02;100.00
21956;BME280;11142;49.930;8.606;2023-12-20T00:38:07;99824.69;;;6.02;100.00
21956;BME280;11142;49.930;8.606;2023-12-20T00:40:36;99835.16;;;5.99;100.00
21956;BME280;11142;49.930;8.606;2023-12-20T00:43:05;99816.19;;;6.00;100.00
21956;BME280;11142;49.930;8.606;2023-12-20T00:45:35;99822.84;;;5.87;100.00
21956;BME280;11142;49.930;8.606;2023-12-20T00:48:05;99817.53;;;5.90;100.00
21956;BME280;11142;49.930;8.606;2023-12-20T00:50:36;99816.19;;;6.00;100.00
21956;BME280;11142;49.930;8.606;2023-12-20T00:53:05;99804.50;;;5.93;100.00
21956;BME280;11142;49.930;8.606;2023-12-20T00:55:37;99815.28;;;6.01;100.00
21956;BME280;11142;49.930;8.606;2023-12-20T00:58:05;99806.56;;;6.04;100.00
21956;BME280;11142;49.930;8.606;2023-12-20T01:00:33;99798.78;;;6.05;100.00
21956;BME280;11142;49.930;8.606;2023-12-20T01:03:02;99805.19;;;5.97;100.00
21956;BME280;11142;49.930;8.606;2023-12-20T01:05:31;99808.03;;;5.92;100.00
21956;BME280;11142;49.930;8.606;2023-12-20T01:08:03;99808.31;;;5.86;100.00
21956;BME280;11142;49.930;8.606;2023-12-20T01:10:35;99804.94;;;5.84;100.00
21956;BME280;11142;49.930;8.606;2023-12-20T01:13:06;99794.38;;;5.90;100.00
21956;BME280;11142;49.930;8.606;2023-12-20T01:15:37;99793.94;;;5.99;100.00
21956;BME280;11142;49.930;8.606;2023-12-20T01:18:06;99792.84;;;6.03;100.00
21956;BME280;11142;49.930;8.606;2023-12-20T01:20:34;99797.31;;;6.00;100.00
21956;BME280;11142;49.930;8.606;2023-12-20T01:23:12;99800.44;;;5.89;100.00
21956;BME280;11142;49.930;8.606;2023-12-20T01:25:40;99807.34;;;5.88;100.00
21956;BME280;11142;49.930;8.606;2023-12-20T01:28:11;99785.75;;;5.91;100.00
21956;BME280;11142;49.930;8.606;2023-12-20T01:30:39;99784.22;;;6.04;100.00
21956;BME280;11142;49.930;8.606;2023-12-20T01:33:07;99796.66;;;5.96;100.00
21956;BME280;11142;49.930;8.606;2023-12-20T01:35:37;99801.38;;;6.05;100.00
21956;BME280;11142;49.930;8.606;2023-12-20T01:38:08;99803.78;;;6.08;100.00
21956;BME280;11142;49.930;8.606;2023-12-20T01:40:41;99809.47;;;5.98;100.00
21956;BME280;11142;49.930;8.606;2023-12-20T01:43:11;99806.97;;;5.96;100.00
21956;BME280;11142;49.930;8.606;2023-12-20T01:45:42;99803.94;;;6.05;100.00
21956;BME280;11142;49.930;8.606;2023-12-20T01:48:15;99795.13;;;6.09;100.00
21956;BME280;11142;49.930;8.606;2023-12-20T01:50:45;99812.25;;;6.10;100.00
21956;BME280;11142;49.930;8.606;2023-12-20T01:53:15;99815.56;;;6.12;100.00
21956;BME280;11142;49.930;8.606;2023-12-20T01:55:45;99825.22;;;6.09;100.00
21956;BME280;11142;49.930;8.606;2023-12-20T01:58:17;99816.25;;;6.16;100.00
21956;BME280;11142;49.930;8.606;2023-12-20T02:00:47;99826.88;;;6.10;100.00
21956;BME280;11142;49.930;8.606;2023-12-20T03:09:43;99812.72;;;6.18;100.00
21956;BME280;11142;49.930;8.606;2023-12-20T03:18:36;99809.53;;;6.13;100.00
21956;BME280;11142;49.930;8.606;2023-12-20T03:21:05;99821.94;;;6.22;100.00
21956;BME280;11142;49.930;8.606;2023-12-20T03:23:33;99824.94;;;6.15;100.00
21956;BME280;11142;49.930;8.606;2023-12-20T03:26:03;99825.72;;;6.15;100.00
21956;BME280;11142;49.930;8.606;2023-12-20T03:28:31;99829.78;;;6.21;100.00
21956;BME280;11142;49.930;8.606;2023-12-20T03:40:09;99834.00;;;6.22;100.00
21956;BME280;11142;49.930;8.606;2023-12-20T03:42:39;99834.69;;;6.25;100.00
21956;BME280;11142;49.930;8.606;2023-12-20T03:45:08;99840.22;;;6.18;100.00
21956;BME280;11142;49.930;8.606;2023-12-20T03:47:37;99829.16;;;6.16;100.00
21956;BME280;11142;49.930;8.606;2023-12-20T03:50:06;99827.41;;;6.16;100.00
21956;BME280;11142;49.930;8.606;2023-12-20T03:52:35;99835.59;;;6.24;100.00
21956;BME280;11142;49.930;8.606;2023-12-20T03:55:04;99840.59;;;6.27;100.00
21956;BME280;11142;49.930;8.606;2023-12-20T03:57:32;99846.50;;;6.29;100.00
21956;BME280;11142;49.930;8.606;2023-12-20T04:55:43;99886.13;;;6.44;100.00
21956;BME280;11142;49.930;8.606;2023-12-20T04:58:11;99895.66;;;6.25;100.00
21956;BME280;11142;49.930;8.606;2023-12-20T05:00:40;99886.06;;;6.11;100.00
21956;BME280;11142;49.930;8.606;2023-12-20T05:03:08;99886.13;;;6.10;100.00
21956;BME280;11142;49.930;8.606;2023-12-20T05:11:29;99899.91;;;5.54;100.00
21956;BME280;11142;49.930;8.606;2023-12-20T05:13:59;99901.00;;;5.49;100.00
21956;BME280;11142;49.930;8.606;2023-12-20T05:16:27;99906.84;;;5.52;100.00
21956;BME280;11142;49.930;8.606;2023-12-20T05:18:55;99910.66;;;5.44;100.00
21956;BME280;11142;49.930;8.606;2023-12-20T05:21:23;99916.94;;;5.57;100.00
21956;BME280;11142;49.930;8.606;2023-12-20T05:23:51;99919.84;;;5.49;100.00
21956;BME280;11142;49.930;8.606;2023-12-20T05:26:19;99934.59;;;5.46;100.00
21956;BME280;11142;49.930;8.606;2023-12-20T05:28:49;99926.25;;;5.41;100.00
21956;BME280;11142;49.930;8.606;2023-12-20T05:31:18;99930.75;;;5.17;100.00
21956;BME280;11142;49.930;8.606;2023-12-20T05:33:47;99923.91;;;4.97;100.00
21956;BME280;11142;49.930;8.606;2023-12-20T05:51:32;99902.31;;;4.81;100.00
21956;BME280;11142;49.930;8.606;2023-12-20T05:54:00;99903.66;;;4.90;100.00
21956;BME280;11142;49.930;8.606;2023-12-20T05:56:29;99909.63;;;4.90;100.00
21956;BME280;11142;49.930;8.606;2023-12-20T05:58:56;99920.66;;;5.12;100.00
21956;BME280;11142;49.930;8.606;2023-12-20T06:01:25;99917.97;;;5.53;100.00
21956;BME280;11142;49.930;8.606;2023-12-20T06:03:54;99921.31;;;5.73;100.00
21956;BME280;11142;49.930;8.606;2023-12-20T06:06:23;99940.00;;;5.58;100.00
21956;BME280;11142;49.930;8.606;2023-12-20T06:08:53;99952.53;;;5.47;100.00
21956;BME280;11142;49.930;8.606;2023-12-20T06:11:21;99966.50;;;5.23;100.00
21956;BME280;11142;49.930;8.606;2023-12-20T06:13:49;99981.09;;;5.22;100.00
21956;BME280;11142;49.930;8.606;2023-12-20T06:16:19;99981.66;;;5.29;100.00
21956;BME280;11142;49.930;8.606;2023-12-20T06:18:47;99992.41;;;5.18;100.00
21956;BME280;11142;49.930;8.606;2023-12-20T06:21:15;100001.50;;;5.07;100.00
21956;BME280;11142;49.930;8.606;2023-12-20T06:23:43;100008.81;;;4.96;100.00
21956;BME280;11142;49.930;8.606;2023-12-20T06:26:13;100018.00;;;4.81;100.00
21956;BME280;11142;49.930;8.606;2023-12-20T06:28:41;100013.59;;;4.63;100.00
21956;BME280;11142;49.930;8.606;2023-12-20T06:31:09;100017.50;;;4.51;100.00
21956;BME280;11142;49.930;8.606;2023-12-20T06:33:38;100007.94;;;4.55;100.00
21956;BME280;11142;49.930;8.606;2023-12-20T06:36:11;100007.69;;;4.61;100.00
21956;BME280;11142;49.930;8.606;2023-12-20T06:38:39;100010.38;;;4.58;100.00
21956;BME280;11142;49.930;8.606;2023-12-20T06:41:14;100010.09;;;4.44;100.00
21956;BME280;11142;49.930;8.606;2023-12-20T06:43:43;100005.84;;;4.43;100.00
21956;BME280;11142;49.930;8.606;2023-12-20T06:46:16;99993.13;;;4.40;100.00
21956;BME280;11142;49.930;8.606;2023-12-20T06:48:44;99988.25;;;4.34;100.00
21956;BME280;11142;49.930;8.606;2023-12-20T06:51:14;99995.34;;;4.27;100.00
21956;BME280;11142;49.930;8.606;2023-12-20T06:53:43;100003.09;;;4.25;100.00
21956;BME280;11142;49.930;8.606;2023-12-20T06:56:12;100003.06;;;4.27;100.00
21956;BME280;11142;49.930;8.606;2023-12-20T06:58:46;100007.50;;;4.22;100.00
21956;BME280;11142;49.930;8.606;2023-12-20T07:01:14;100007.47;;;4.23;100.00
21956;BME280;11142;49.930;8.606;2023-12-20T07:03:44;100005.75;;;4.24;100.00
21956;BME280;11142;49.930;8.606;2023-12-20T07:06:12;100014.16;;;4.27;100.00
21956;BME280;11142;49.930;8.606;2023-12-20T07:08:43;100018.34;;;4.30;100.00
21956;BME280;11142;49.930;8.606;2023-12-20T07:11:12;100027.06;;;4.26;100.00
21956;BME280;11142;49.930;8.606;2023-12-20T07:13:40;100025.81;;;4.14;100.00
21956;BME280;11142;49.930;8.606;2023-12-20T07:16:09;100030.50;;;4.03;100.00
21956;BME280;11142;49.930;8.606;2023-12-20T07:18:38;100029.38;;;4.10;100.00
21956;BME280;11142;49.930;8.606;2023-12-20T07:21:06;100031.28;;;4.05;100.00
21956;BME280;11142;49.930;8.606;2023-12-20T07:23:35;100033.41;;;3.94;100.00
21956;BME280;11142;49.930;8.606;2023-12-20T07:26:03;100027.44;;;3.94;100.00
21956;BME280;11142;49.930;8.606;2023-12-20T07:28:32;100032.69;;;3.91;100.00
21956;BME280;11142;49.930;8.606;2023-12-20T07:31:00;100032.06;;;4.07;100.00
21956;BME280;11142;49.930;8.606;2023-12-20T07:33:37;100032.91;;;4.08;100.00
21956;BME280;11142;49.930;8.606;2023-12-20T07:36:06;100038.25;;;4.02;100.00
21956;BME280;11142;49.930;8.606;2023-12-20T07:38:35;100037.06;;;4.10;100.00
21956;BME280;11142;49.930;8.606;2023-12-20T07:41:04;100035.44;;;4.31;100.00
21956;BME280;11142;49.930;8.606;2023-12-20T07:43:32;100034.47;;;4.55;100.00
21956;BME280;11142;49.930;8.606;2023-12-20T07:46:04;100026.84;;;4.74;100.00
21956;BME280;11142;49.930;8.606;2023-12-20T07:48:40;100044.09;;;4.92;100.00
21956;BME280;11142;49.930;8.606;2023-12-20T07:51:12;100042.63;;;5.07;100.00
21956;BME280;11142;49.930;8.606;2023-12-20T07:53:40;100052.06;;;5.06;100.00
21956;BME280;11142;49.930;8.606;2023-12-20T07:56:15;100057.09;;;5.09;100.00
21956;BME280;11142;49.930;8.606;2023-12-20T07:58:43;100066.72;;;5.04;100.00
21956;BME280;11142;49.930;8.606;2023-12-20T08:01:19;100072.66;;;5.06;100.00
21956;BME280;11142;49.930;8.606;2023-12-20T08:03:51;100077.13;;;5.01;100.00
21956;BME280;11142;49.930;8.606;2023-12-20T08:06:19;100072.91;;;5.00;100.00
21956;BME280;11142;49.930;8.606;2023-12-20T08:08:47;100087.28;;;4.84;100.00
21956;BME280;11142;49.930;8.606;2023-12-20T08:11:28;100083.97;;;4.80;100.00
21956;BME280;11142;49.930;8.606;2023-12-20T08:13:56;100076.78;;;4.68;100.00
21956;BME280;11142;49.930;8.606;2023-12-20T08:16:25;100077.66;;;4.67;100.00
21956;BME280;11142;49.930;8.606;2023-12-20T08:18:55;100082.63;;;4.72;100.00
21956;BME280;11142;49.930;8.606;2023-12-20T08:21:25;100079.28;;;5.12;100.00
21956;BME280;11142;49.930;8.606;2023-12-20T08:23:54;100092.06;;;5.54;100.00
21956;BME280;11142;49.930;8.606;2023-12-20T08:26:22;100112.25;;;5.63;100.00
21956;BME280;11142;49.930;8.606;2023-12-20T08:28:51;100120.75;;;5.65;100.00
21956;BME280;11142;49.930;8.606;2023-12-20T08:31:20;100126.28;;;5.56;100.00
21956;BME280;11142;49.930;8.606;2023-12-20T08:33:49;100120.38;;;5.54;100.00
21956;BME280;11142;49.930;8.606;2023-12-20T08:36:19;100126.09;;;5.60;100.00
21956;BME280;11142;49.930;8.606;2023-12-20T08:38:50;100126.06;;;5.42;100.00
21956;BME280;11142;49.930;8.606;2023-12-20T08:41:18;100128.56;;;5.23;100.00
21956;BME280;11142;49.930;8.606;2023-12-20T08:43:47;100127.59;;;5.25;100.00
21956;BME280;11142;49.930;8.606;2023-12-20T08:46:15;100126.38;;;5.54;100.00
21956;BME280;11142;49.930;8.606;2023-12-20T08:48:43;100137.88;;;5.66;100.00
21956;BME280;11142;49.930;8.606;2023-12-20T08:51:13;100142.00;;;5.70;100.00
21956;BME280;11142;49.930;8.606;2023-12-20T08:53:43;100156.16;;;5.60;100.00
21956;BME280;11142;49.930;8.606;2023-12-20T08:56:13;100141.66;;;5.98;100.00
21956;BME280;11142;49.930;8.606;2023-12-20T08:58:42;100142.81;;;6.29;100.00
21956;BME280;11142;49.930;8.606;2023-12-20T09:01:10;100150.34;;;6.71;100.00
21956;BME280;11142;49.930;8.606;2023-12-20T09:03:39;100167.16;;;6.97;100.00
21956;BME280;11142;49.930;8.606;2023-12-20T09:06:07;100183.06;;;7.07;100.00
21956;BME280;11142;49.930;8.606;2023-12-20T09:08:35;100182.47;;;7.19;100.00
21956;BME280;11142;49.930;8.606;2023-12-20T09:11:06;100193.41;;;7.41;100.00
21956;BME280;11142;49.930;8.606;2023-12-20T09:13:35;100196.50;;;7.30;100.00
21956;BME280;11142;49.930;8.606;2023-12-20T09:16:04;100187.72;;;7.34;100.00
21956;BME280;11142;49.930;8.606;2023-12-20T09:18:33;100191.34;;;7.30;100.00
21956;BME280;11142;49.930;8.606;2023-12-20T09:21:02;100203.34;;;7.48;100.00
21956;BME280;11142;49.930;8.606;2023-12-20T09:23:30;100208.38;;;7.34;100.00
21956;BME280;11142;49.930;8.606;2023-12-20T09:25:58;100185.44;;;7.45;100.00
21956;BME280;11142;49.930;8.606;2023-12-20T09:28:28;100196.44;;;7.49;100.00
21956;BME280;11142;49.930;8.606;2023-12-20T09:30:56;100191.50;;;7.62;100.00
21956;BME280;11142;49.930;8.606;2023-12-20T09:33:24;100177.50;;;7.67;100.00
21956;BME280;11142;49.930;8.606;2023-12-20T09:35:54;100193.41;;;7.75;100.00
21956;BME280;11142;49.930;8.606;2023-12-20T09:38:22;100183.59;;;7.99;100.00
21956;BME280;11142;49.930;8.606;2023-12-20T09:40:52;100196.84;;;8.09;100.00
21956;BME280;11142;49.930;8.606;2023-12-20T09:43:23;100208.81;;;8.11;100.00
21956;BME280;11142;49.930;8.606;2023-12-20T09:46:00;100201.69;;;7.99;100.00
21956;BME280;11142;49.930;8.606;2023-12-20T09:48:29;100198.63;;;8.08;100.00
21956;BME280;11142;49.930;8.606;2023-12-20T09:50:58;100204.19;;;8.00;100.00
21956;BME280;11142;49.930;8.606;2023-12-20T09:53:27;100202.88;;;8.09;100.00
21956;BME280;11142;49.930;8.606;2023-12-20T09:55:58;100199.75;;;8.20;100.00
21956;BME280;11142;49.930;8.606;2023-12-20T09:58:27;100208.56;;;8.33;100.00
21956;BME280;11142;49.930;8.606;2023-12-20T10:00:57;100215.91;;;8.40;100.00
21956;BME280;11142;49.930;8.606;2023-12-20T10:03:26;100211.22;;;8.31;100.00
21956;BME280;11142;49.930;8.606;2023-12-20T10:05:56;100216.69;;;8.42;100.00
21956;BME280;11142;49.930;8.606;2023-12-20T10:08:26;100217.22;;;8.32;100.00
21956;BME280;11142;49.930;8.606;2023-12-20T10:10:54;100214.50;;;8.50;100.00
21956;BME280;11142;49.930;8.606;2023-12-20T10:13:25;100219.63;;;8.68;100.00
21956;BME280;11142;49.930;8.606;2023-12-20T10:15:55;100212.03;;;8.65;100.00
21956;BME280;11142;49.930;8.606;2023-12-20T10:18:24;100223.66;;;8.40;100.00
21956;BME280;11142;49.930;8.606;2023-12-20T10:21:05;100212.75;;;8.51;100.00
21956;BME280;11142;49.930;8.606;2023-12-20T10:23:36;100217.13;;;8.66;100.00
21956;BME280;11142;49.930;8.606;2023-12-20T10:26:10;100216.56;;;8.92;100.00
21956;BME280;11142;49.930;8.606;2023-12-20T10:28:39;100215.13;;;9.02;100.00
21956;BME280;11142;49.930;8.606;2023-12-20T10:31:07;100215.97;;;9.19;100.00
21956;BME280;11142;49.930;8.606;2023-12-20T10:33:40;100207.63;;;8.98;100.00
21956;BME280;11142;49.930;8.606;2023-12-20T10:36:09;100199.50;;;8.57;100.00
21956;BME280;11142;49.930;8.606;2023-12-20T10:38:43;100198.84;;;8.69;100.00
21956;BME280;11142;49.930;8.606;2023-12-20T10:41:14;100191.69;;;8.90;100.00
21956;BME280;11142;49.930;8.606;2023-12-20T10:43:45;100187.94;;;8.80;100.00
21956;BME280;11142;49.930;8.606;2023-12-20T10:46:13;100181.75;;;8.82;100.00
21956;BME280;11142;49.930;8.606;2023-12-20T10:48:44;100185.41;;;8.63;100.00
21956;BME280;11142;49.930;8.606;2023-12-20T10:51:17;100186.34;;;8.77;100.00
21956;BME280;11142;49.930;8.606;2023-12-20T10:53:47;100182.00;;;8.78;100.00
21956;BME280;11142;49.930;8.606;2023-12-20T10:56:18;100189.50;;;8.67;100.00
21956;BME280;11142;49.930;8.606;2023-12-20T10:58:47;100177.91;;;8.89;100.00
21956;BME280;11142;49.930;8.606;2023-12-20T11:01:16;100190.28;;;9.00;100.00
21956;BME280;11142;49.930;8.606;2023-12-20T11:03:48;100187.44;;;9.34;100.00
21956;BME280;11142;49.930;8.606;2023-12-20T11:06:27;100199.09;;;9.12;100.00
21956;BME280;11142;49.930;8.606;2023-12-20T11:09:06;100189.06;;;9.21;100.00
21956;BME280;11142;49.930;8.606;2023-12-20T11:14:33;100185.09;;;9.00;100.00
21956;BME280;11142;49.930;8.606;2023-12-20T11:17:06;100181.50;;;8.87;100.00
21956;BME280;11142;49.930;8.606;2023-12-20T11:20:04;100175.72;;;8.82;100.00
21956;BME280;11142;49.930;8.606;2023-12-20T11:22:35;100179.25;;;8.81;100.00
21956;BME280;11142;49.930;8.606;2023-12-20T11:25:09;100183.09;;;8.58;100.00
21956;BME280;11142;49.930;8.606;2023-12-20T11:27:41;100176.56;;;8.67;100.00
21956;BME280;11142;49.930;8.606;2023-12-20T11:30:11;100167.47;;;8.75;100.00
21956;BME280;11142;49.930;8.606;2023-12-20T11:32:42;100174.75;;;9.00;100.00
21956;BME280;11142;49.930;8.606;2023-12-20T11:35:19;100178.47;;;9.26;100.00
21956;BME280;11142;49.930;8.606;2023-12-20T11:37:51;100186.13;;;9.27;100.00
21956;BME280;11142;49.930;8.606;2023-12-20T11:40:23;100191.75;;;9.49;100.00
21956;BME280;11142;49.930;8.606;2023-12-20T11:42:52;100200.31;;;9.66;100.00
21956;BME280;11142;49.930;8.606;2023-12-20T11:45:24;100202.47;;;9.43;100.00
21956;BME280;11142;49.930;8.606;2023-12-20T11:47:57;100196.41;;;9.58;100.00
21956;BME280;11142;49.930;8.606;2023-12-20T11:50:28;100189.28;;;9.32;100.00
21956;BME280;11142;49.930;8.606;2023-12-20T11:52:57;100192.47;;;9.37;100.00
21956;BME280;11142;49.930;8.606;2023-12-20T11:55:25;100200.38;;;9.50;100.00
21956;BME280;11142;49.930;8.606;2023-12-20T11:57:54;100199.44;;;9.05;100.00
21956;BME280;11142;49.930;8.606;2023-12-20T12:00:22;100195.69;;;8.95;100.00
21956;BME280;11142;49.930;8.606;2023-12-20T12:02:57;100186.84;;;8.99;100.00
21956;BME280;11142;49.930;8.606;2023-12-20T12:05:27;100183.59;;;8.96;100.00
21956;BME280;11142;49.930;8.606;2023-12-20T12:07:59;100194.09;;;8.93;100.00
21956;BME280;11142;49.930;8.606;2023-12-20T12:10:29;100195.81;;;8.30;100.00
21956;BME280;11142;49.930;8.606;2023-12-20T12:12:57;100191.31;;;8.16;100.00
21956;BME280;11142;49.930;8.606;2023-12-20T12:15:26;100190.53;;;7.98;100.00
21956;BME280;11142;49.930;8.606;2023-12-20T12:17:55;100183.47;;;7.85;100.00
21956;BME280;11142;49.930;8.606;2023-12-20T12:20:24;100189.38;;;7.87;100.00
21956;BME280;11142;49.930;8.606;2023-12-20T12:23:00;100173.97;;;8.35;100.00
21956;BME280;11142;49.930;8.606;2023-12-20T12:25:30;100174.81;;;8.51;100.00
21956;BME280;11142;49.930;8.606;2023-12-20T12:27:59;100162.00;;;8.66;100.00
21956;BME280;11142;49.930;8.606;2023-12-20T12:30:28;100175.88;;;9.10;100.00
21956;BME280;11142;49.930;8.606;2023-12-20T12:33:05;100167.34;;;9.24;100.00
21956;BME280;11142;49.930;8.606;2023-12-20T12:35:34;100169.94;;;9.24;100.00
21956;BME280;11142;49.930;8.606;2023-12-20T12:38:04;100166.16;;;9.59;100.00
21956;BME280;11142;49.930;8.606;2023-12-20T12:40:35;100158.75;;;10.39;100.00
21956;BME280;11142;49.930;8.606;2023-12-20T12:43:04;100176.91;;;11.60;100.00
21956;BME280;11142;49.930;8.606;2023-12-20T12:45:33;100179.03;;;12.31;95.62
21956;BME280;11142;49.930;8.606;2023-12-20T12:48:02;100184.91;;;12.71;90.65
21956;BME280;11142;49.930;8.606;2023-12-20T12:50:30;100167.78;;;13.16;87.70
21956;BME280;11142;49.930;8.606;2023-12-20T12:52:59;100172.91;;;11.55;89.90
21956;BME280;11142;49.930;8.606;2023-12-20T12:55:28;100178.47;;;11.24;95.29
21956;BME280;11142;49.930;8.606;2023-12-20T12:57:57;100172.91;;;10.62;98.38
21956;BME280;11142;49.930;8.606;2023-12-20T13:00:25;100155.81;;;10.17;100.00
21956;BME280;11142;49.930;8.606;2023-12-20T13:02:53;100139.63;;;10.12;100.00
21956;BME280;11142;49.930;8.606;2023-12-20T13:05:21;100143.25;;;10.52;100.00
21956;BME280;11142;49.930;8.606;2023-12-20T13:07:53;100138.28;;;12.55;99.54
21956;BME280;11142;49.930;8.606;2023-12-20T13:10:23;100134.50;;;12.59;94.75
21956;BME280;11142;49.930;8.606;2023-12-20T13:12:54;100130.19;;;11.46;98.66
21956;BME280;11142;49.930;8.606;2023-12-20T13:15:23;100120.69;;;11.20;100.00
21956;BME280;11142;49.930;8.606;2023-12-20T13:17:51;100108.31;;;10.43;100.00
21956;BME280;11142;49.930;8.606;2023-12-20T13:20:20;100101.50;;;10.96;100.00
21956;BME280;11142;49.930;8.606;2023-12-20T13:22:48;100105.63;;;11.12;100.00
21956;BME280;11142;49.930;8.606;2023-12-20T13:25:17;100093.22;;;11.81;100.00
21956;BME280;11142;49.930;8.606;2023-12-20T13:27:46;100092.91;;;11.98;99.03
21956;BME280;11142;49.930;8.606;2023-12-20T13:30:17;100089.78;;;11.80;99.53
21956;BME280;11142;49.930;8.606;2023-12-20T13:32:45;100084.13;;;11.36;100.00
21956;BME280;11142;49.930;8.606;2023-12-20T13:35:14;100097.06;;;10.71;100.00
21956;BME280;11142;49.930;8.606;2023-12-20T13:37:43;100096.31;;;10.42;100.00
21956;BME280;11142;49.930;8.606;2023-12-20T13:40:15;100084.06;;;10.44;100.00
21956;BME280;11142;49.930;8.606;2023-12-20T13:42:44;100087.31;;;10.05;100.00
21956;BME280;11142;49.930;8.606;2023-12-20T13:45:12;100077.22;;;9.44;100.00
21956;BME280;11142;49.930;8.606;2023-12-20T13:47:42;100066.69;;;9.47;100.00
21956;BME280;11142;49.930;8.606;2023-12-20T13:50:11;100059.38;;;9.40;100.00
21956;BME280;11142;49.930;8.606;2023-12-20T13:52:40;100050.75;;;9.39;100.00
21956;BME280;11142;49.930;8.606;2023-12-20T13:55:09;100059.50;;;9.67;100.00
21956;BME280;11142;49.930;8.606;2023-12-20T13:57:38;100055.69;;;9.58;100.00
21956;BME280;11142;49.930;8.606;2023-12-20T14:00:10;100068.41;;;9.33;100.00
21956;BME280;11142;49.930;8.606;2023-12-20T14:02:43;100065.50;;;9.09;100.00
21956;BME280;11142;49.930;8.606;2023-12-20T14:05:13;100051.97;;;9.04;100.00
21956;BME280;11142;49.930;8.606;2023-12-20T14:07:45;100047.13;;;8.84;100.00
21956;BME280;11142;49.930;8.606;2023-12-20T14:10:16;100059.13;;;8.85;100.00
21956;BME280;11142;49.930;8.606;2023-12-20T14:12:46;100048.44;;;8.91;100.00
21956;BME280;11142;49.930;8.606;2023-12-20T14:15:17;100054.75;;;8.71;100.00
21956;BME280;11142;49.930;8.606;2023-12-20T14:17:47;100048.91;;;8.68;100.00
21956;BME280;11142;49.930;8.606;2023-12-20T14:20:16;100055.16;;;8.64;100.00
21956;BME280;11142;49.930;8.606;2023-12-20T14:22:44;100046.66;;;8.62;100.00
21956;BME280;11142;49.930;8.606;2023-12-20T14:25:14;100050.63;;;9.13;100.00
21956;BME280;11142;49.930;8.606;2023-12-20T14:27:42;100057.16;;;8.74;100.00
21956;BME280;11142;49.930;8.606;2023-12-20T14:30:12;100046.25;;;8.53;100.00
21956;BME280;11142;49.930;8.606;2023-12-20T14:32:43;100049.84;;;8.35;100.00
21956;BME280;11142;49.930;8.606;2023-12-20T14:35:14;100055.50;;;8.11;100.00
21956;BME280;11142;49.930;8.606;2023-12-20T14:37:43;100039.31;;;8.23;100.00
21956;BME280;11142;49.930;8.606;2023-12-20T14:40:12;100043.66;;;8.22;100.00
21956;BME280;11142;49.930;8.606;2023-12-20T14:42:44;100054.84;;;8.54;100.00
21956;BME280;11142;49.930;8.606;2023-12-20T14:45:12;100034.16;;;8.54;100.00
21956;BME280;11142;49.930;8.606;2023-12-20T14:47:41;100042.19;;;8.49;100.00
21956;BME280;11142;49.930;8.606;2023-12-20T14:50:10;100040.72;;;8.60;100.00
21956;BME280;11142;49.930;8.606;2023-12-20T14:52:46;100043.94;;;8.49;100.00
21956;BME280;11142;49.930;8.606;2023-12-20T14:55:14;100045.03;;;8.29;100.00
21956;BME280;11142;49.930;8.606;2023-12-20T14:57:44;100045.00;;;8.14;100.00
21956;BME280;11142;49.930;8.606;2023-12-20T15:00:12;100029.06;;;8.06;100.00
21956;BME280;11142;49.930;8.606;2023-12-20T15:02:43;100015.56;;;8.16;100.00
21956;BME280;11142;49.930;8.606;2023-12-20T15:05:13;100017.81;;;8.07;100.00
21956;BME280;11142;49.930;8.606;2023-12-20T15:07:42;100019.50;;;8.08;100.00
21956;BME280;11142;49.930;8.606;2023-12-20T15:10:12;100012.63;;;8.07;100.00
21956;BME280;11142;49.930;8.606;2023-12-20T15:12:41;100004.72;;;7.94;100.00
21956;BME280;11142;49.930;8.606;2023-12-20T15:15:09;100004.97;;;7.89;100.00
21956;BME280;11142;49.930;8.606;2023-12-20T15:17:37;100015.22;;;7.91;100.00
21956;BME280;11142;49.930;8.606;2023-12-20T15:20:05;100021.72;;;7.82;100.00
21956;BME280;11142;49.930;8.606;2023-12-20T15:22:34;100016.78;;;7.78;100.00
21956;BME280;11142;49.930;8.606;2023-12-20T15:25:03;100012.06;;;7.86;100.00
21956;BME280;11142;49.930;8.606;2023-12-20T15:27:34;100015.63;;;7.83;100.00
21956;BME280;11142;49.930;8.606;2023-12-20T15:30:07;100001.13;;;7.81;100.00
21956;BME280;11142;49.930;8.606;2023-12-20T15:32:36;100015.38;;;7.72;100.00
21956;BME280;11142;49.930;8.606;2023-12-20T15:35:06;100007.53;;;7.74;100.00
21956;BME280;11142;49.930;8.606;2023-12-20T15:37:34;100006.63;;;7.90;100.00
21956;BME280;11142;49.930;8.606;2023-12-20T15:40:02;100007.81;;;8.00;100.00
21956;BME280;11142;49.930;8.606;2023-12-20T15:42:33;100014.16;;;7.95;100.00
21956;BME280;11142;49.930;8.606;2023-12-20T15:45:04;100009.97;;;7.77;100.00
21956;BME280;11142;49.930;8.606;2023-12-20T15:47:33;99999.47;;;7.80;100.00